Aviation Digital Data Service (ADDS)

Output produced by METARs form (1111 UTC 18 June 2019)
found at http://www.aviationweather.gov/metar/data/
 
METAR text: ORER 181100Z 25011KT 9000 FEW040 38/04 Q1008 NOSIG
Conditions at: ORER (ERBIL INTL , IQ) observed 1100 UTC 18 June 2019
Temperature: 38.0°C (100°F)
Dewpoint: 4.0°C (39°F) [RH = 12%]
Pressure (altimeter): 29.76 inches Hg (1008.0 mb)
Winds: from the WSW (250 degrees) at 13 MPH (11 knots; 5.7 m/s)
Visibility: 6 miles ( 9 km)
Ceiling: at least 12,000 feet AGL
Clouds: few clouds at 4000 feet AGL
Weather: no significant weather observed at this time

METAR text: ORER 181000Z 24009KT 9000 FEW040 38/04 Q1008 NOSIG
Conditions at: ORER (ERBIL INTL , IQ) observed 1000 UTC 18 June 2019
Temperature: 38.0°C (100°F)
Dewpoint: 4.0°C (39°F) [RH = 12%]
Pressure (altimeter): 29.76 inches Hg (1008.0 mb)
Winds: from the WSW (240 degrees) at 10 MPH (9 knots; 4.6 m/s)
Visibility: 6 miles ( 9 km)
Ceiling: at least 12,000 feet AGL
Clouds: few clouds at 4000 feet AGL
Weather: no significant weather observed at this time

METAR text: ORER 180900Z 21009KT 9000 FEW040 37/06 Q1009 NOSIG
Conditions at: ORER (ERBIL INTL , IQ) observed 0900 UTC 18 June 2019
Temperature: 37.0°C (99°F)
Dewpoint: 6.0°C (43°F) [RH = 15%]
Pressure (altimeter): 29.79 inches Hg (1009.0 mb)
Winds: from the SSW (210 degrees) at 10 MPH (9 knots; 4.6 m/s)
Visibility: 6 miles ( 9 km)
Ceiling: at least 12,000 feet AGL
Clouds: few clouds at 4000 feet AGL
Weather: no significant weather observed at this time

METAR text: ORER 180800Z 24006KT 9000 FEW040 37/06 Q1009 NOSIG
Conditions at: ORER (ERBIL INTL , IQ) observed 0800 UTC 18 June 2019
Temperature: 37.0°C (99°F)
Dewpoint: 6.0°C (43°F) [RH = 15%]
Pressure (altimeter): 29.79 inches Hg (1009.0 mb)
Winds: from the WSW (240 degrees) at 7 MPH (6 knots; 3.1 m/s)
Visibility: 6 miles ( 9 km)
Ceiling: at least 12,000 feet AGL
Clouds: few clouds at 4000 feet AGL
Weather: no significant weather observed at this time

METAR text: ORER 180700Z 19006KT 9000 NSC 36/06 Q1009 NOSIG
Conditions at: ORER (ERBIL INTL , IQ) observed 0700 UTC 18 June 2019
Temperature: 36.0°C (97°F)
Dewpoint: 6.0°C (43°F) [RH = 16%]
Pressure (altimeter): 29.79 inches Hg (1009.0 mb)
Winds: from the S (190 degrees) at 7 MPH (6 knots; 3.1 m/s)
Visibility: 6 miles ( 9 km)
Ceiling: at least 12,000 feet AGL
Clouds: sky clear below 12,000 feet AGL
Weather: no significant weather observed at this time

METAR text: ORER 180600Z 15004KT 9000 NSC 36/06 Q1009 NOSIG
Conditions at: ORER (ERBIL INTL , IQ) observed 0600 UTC 18 June 2019
Temperature: 36.0°C (97°F)
Dewpoint: 6.0°C (43°F) [RH = 16%]
Pressure (altimeter): 29.79 inches Hg (1009.0 mb)
Winds: from the SSE (150 degrees) at 5 MPH (4 knots; 2.1 m/s)
Visibility: 6 miles ( 9 km)
Ceiling: at least 12,000 feet AGL
Clouds: sky clear below 12,000 feet AGL
Weather: no significant weather observed at this time

METAR text: ORER 180500Z 12003KT CAVOK 35/06 Q1010 NOSIG
Conditions at: ORER (ERBIL INTL , IQ) observed 0500 UTC 18 June 2019
Temperature: 35.0°C (95°F)
Dewpoint: 6.0°C (43°F) [RH = 17%]
Pressure (altimeter): 29.82 inches Hg (1010.0 mb)
Winds: from the ESE (120 degrees) at 3 MPH (3 knots; 1.5 m/s)
Visibility: 6 or more miles (10+ km)
Ceiling: ceiling and visibility are OK
Clouds: unknown
Weather: no significant weather observed at this time

METAR text: ORER 180400Z 08003KT CAVOK 32/06 Q1009 NOSIG
Conditions at: ORER (ERBIL INTL , IQ) observed 0400 UTC 18 June 2019
Temperature: 32.0°C (90°F)
Dewpoint: 6.0°C (43°F) [RH = 20%]
Pressure (altimeter): 29.79 inches Hg (1009.0 mb)
Winds: from the E (80 degrees) at 3 MPH (3 knots; 1.5 m/s)
Visibility: 6 or more miles (10+ km)
Ceiling: ceiling and visibility are OK
Clouds: unknown
Weather: no significant weather observed at this time

METAR text: ORER 180300Z VRB02KT CAVOK 25/05 Q1010 NOSIG
Conditions at: ORER (ERBIL INTL , IQ) observed 0300 UTC 18 June 2019
Temperature: 25.0°C (77°F)
Dewpoint: 5.0°C (41°F) [RH = 28%]
Pressure (altimeter): 29.82 inches Hg (1010.0 mb)
Winds: variable direction winds at 2 MPH (2 knots; 1.0 m/s)
Visibility: 6 or more miles (10+ km)
Ceiling: ceiling and visibility are OK
Clouds: unknown
Weather: no significant weather observed at this time

METAR text: ORER 180200Z 00000KT CAVOK 24/04 Q1009 NOSIG
Conditions at: ORER (ERBIL INTL , IQ) observed 0200 UTC 18 June 2019
Temperature: 24.0°C (75°F)
Dewpoint: 4.0°C (39°F) [RH = 27%]
Pressure (altimeter): 29.79 inches Hg (1009.0 mb)
Winds: calm
Visibility: 6 or more miles (10+ km)
Ceiling: ceiling and visibility are OK
Clouds: unknown
Weather: no significant weather observed at this time

METAR text: ORER 180000Z 02003KT CAVOK 26/04 Q1009 NOSIG
Conditions at: ORER (ERBIL INTL , IQ) observed 0000 UTC 18 June 2019
Temperature: 26.0°C (79°F)
Dewpoint: 4.0°C (39°F) [RH = 24%]
Pressure (altimeter): 29.79 inches Hg (1009.0 mb)
Winds: from the NNE (20 degrees) at 3 MPH (3 knots; 1.5 m/s)
Visibility: 6 or more miles (10+ km)
Ceiling: ceiling and visibility are OK
Clouds: unknown
Weather: no significant weather observed at this time

METAR text: ORER 172300Z 03003KT CAVOK 25/04 Q1009 NOSIG
Conditions at: ORER (ERBIL INTL , IQ) observed 2300 UTC 17 June 2019
Temperature: 25.0°C (77°F)
Dewpoint: 4.0°C (39°F) [RH = 26%]
Pressure (altimeter): 29.79 inches Hg (1009.0 mb)
Winds: from the NNE (30 degrees) at 3 MPH (3 knots; 1.5 m/s)
Visibility: 6 or more miles (10+ km)
Ceiling: ceiling and visibility are OK
Clouds: unknown
Weather: no significant weather observed at this time

METAR text: ORER 172200Z 01003KT CAVOK 25/04 Q1010 NOSIG
Conditions at: ORER (ERBIL INTL , IQ) observed 2200 UTC 17 June 2019
Temperature: 25.0°C (77°F)
Dewpoint: 4.0°C (39°F) [RH = 26%]
Pressure (altimeter): 29.82 inches Hg (1010.0 mb)
Winds: from the N (10 degrees) at 3 MPH (3 knots; 1.5 m/s)
Visibility: 6 or more miles (10+ km)
Ceiling: ceiling and visibility are OK
Clouds: unknown
Weather: no significant weather observed at this time

METAR text: ORER 172100Z 01005KT CAVOK 27/04 Q1010 NOSIG
Conditions at: ORER (ERBIL INTL , IQ) observed 2100 UTC 17 June 2019
Temperature: 27.0°C (81°F)
Dewpoint: 4.0°C (39°F) [RH = 23%]
Pressure (altimeter): 29.82 inches Hg (1010.0 mb)
Winds: from the N (10 degrees) at 6 MPH (5 knots; 2.6 m/s)
Visibility: 6 or more miles (10+ km)
Ceiling: ceiling and visibility are OK
Clouds: unknown
Weather: no significant weather observed at this time

METAR text: ORER 172000Z 36005KT CAVOK 26/04 Q1010 NOSIG
Conditions at: ORER (ERBIL INTL , IQ) observed 2000 UTC 17 June 2019
Temperature: 26.0°C (79°F)
Dewpoint: 4.0°C (39°F) [RH = 24%]
Pressure (altimeter): 29.82 inches Hg (1010.0 mb)
Winds: from the N (360 degrees) at 6 MPH (5 knots; 2.6 m/s)
Visibility: 6 or more miles (10+ km)
Ceiling: ceiling and visibility are OK
Clouds: unknown
Weather: no significant weather observed at this time

METAR text: ORER 171900Z 31003KT CAVOK 28/03 Q1009 NOSIG
Conditions at: ORER (ERBIL INTL , IQ) observed 1900 UTC 17 June 2019
Temperature: 28.0°C (82°F)
Dewpoint: 3.0°C (37°F) [RH = 20%]
Pressure (altimeter): 29.79 inches Hg (1009.0 mb)
Winds: from the NW (310 degrees) at 3 MPH (3 knots; 1.5 m/s)
Visibility: 6 or more miles (10+ km)
Ceiling: ceiling and visibility are OK
Clouds: unknown
Weather: no significant weather observed at this time

METAR text: ORER 171800Z 26007KT CAVOK 31/04 Q1009 NOSIG
Conditions at: ORER (ERBIL INTL , IQ) observed 1800 UTC 17 June 2019
Temperature: 31.0°C (88°F)
Dewpoint: 4.0°C (39°F) [RH = 18%]
Pressure (altimeter): 29.79 inches Hg (1009.0 mb)
Winds: from the W (260 degrees) at 8 MPH (7 knots; 3.6 m/s)
Visibility: 6 or more miles (10+ km)
Ceiling: ceiling and visibility are OK
Clouds: unknown
Weather: no significant weather observed at this time

METAR text: ORER 171700Z 26008KT CAVOK 32/04 Q1008 NOSIG
Conditions at: ORER (ERBIL INTL , IQ) observed 1700 UTC 17 June 2019
Temperature: 32.0°C (90°F)
Dewpoint: 4.0°C (39°F) [RH = 17%]
Pressure (altimeter): 29.76 inches Hg (1008.0 mb)
Winds: from the W (260 degrees) at 9 MPH (8 knots; 4.1 m/s)
Visibility: 6 or more miles (10+ km)
Ceiling: ceiling and visibility are OK
Clouds: unknown
Weather: no significant weather observed at this time

METAR text: ORER 171600Z 25010KT CAVOK 36/04 Q1008 NOSIG
Conditions at: ORER (ERBIL INTL , IQ) observed 1600 UTC 17 June 2019
Temperature: 36.0°C (97°F)
Dewpoint: 4.0°C (39°F) [RH = 14%]
Pressure (altimeter): 29.76 inches Hg (1008.0 mb)
Winds: from the WSW (250 degrees) at 12 MPH (10 knots; 5.1 m/s)
Visibility: 6 or more miles (10+ km)
Ceiling: ceiling and visibility are OK
Clouds: unknown
Weather: no significant weather observed at this time

METAR text: ORER 171500Z 24012KT CAVOK 38/03 Q1007 NOSIG
Conditions at: ORER (ERBIL INTL , IQ) observed 1500 UTC 17 June 2019
Temperature: 38.0°C (100°F)
Dewpoint: 3.0°C (37°F) [RH = 11%]
Pressure (altimeter): 29.73 inches Hg (1007.0 mb)
Winds: from the WSW (240 degrees) at 14 MPH (12 knots; 6.2 m/s)
Visibility: 6 or more miles (10+ km)
Ceiling: ceiling and visibility are OK
Clouds: unknown
Weather: no significant weather observed at this time

METAR text: ORER 171400Z 24015KT CAVOK 39/02 Q1007 NOSIG
Conditions at: ORER (ERBIL INTL , IQ) observed 1400 UTC 17 June 2019
Temperature: 39.0°C (102°F)
Dewpoint: 2.0°C (36°F) [RH = 10%]
Pressure (altimeter): 29.73 inches Hg (1007.0 mb)
Winds: from the WSW (240 degrees) at 17 MPH (15 knots; 7.7 m/s)
Visibility: 6 or more miles (10+ km)
Ceiling: ceiling and visibility are OK
Clouds: unknown
Weather: no significant weather observed at this time

METAR text: ORER 171300Z 23010KT 9000 FWE040 40/01 Q1007 NOSIG
Conditions at: ORER (ERBIL INTL , IQ) observed 1300 UTC 17 June 2019
Temperature: 40.0°C (104°F)
Dewpoint: 1.0°C (34°F) [RH =  9%]
Pressure (altimeter): 29.73 inches Hg (1007.0 mb)
Winds: from the SW (230 degrees) at 12 MPH (10 knots; 5.1 m/s)
Visibility: 6 miles ( 9 km)
Ceiling: unknown
Clouds: missing
Weather: no significant weather observed at this time

METAR text: ORER 171200Z 24012KT 9000 FEW030 40/02 Q1007 NOSIG
Conditions at: ORER (ERBIL INTL , IQ) observed 1200 UTC 17 June 2019
Temperature: 40.0°C (104°F)
Dewpoint: 2.0°C (36°F) [RH = 10%]
Pressure (altimeter): 29.73 inches Hg (1007.0 mb)
Winds: from the WSW (240 degrees) at 14 MPH (12 knots; 6.2 m/s)
Visibility: 6 miles ( 9 km)
Ceiling: at least 12,000 feet AGL
Clouds: few clouds at 3000 feet AGL
Weather: no significant weather observed at this time

METAR text: ORER 171100Z 26014KT 9000 NSC 41/04 Q1007 NOSIG
Conditions at: ORER (ERBIL INTL , IQ) observed 1100 UTC 17 June 2019
Temperature: 41.0°C (106°F)
Dewpoint: 4.0°C (39°F) [RH = 10%]
Pressure (altimeter): 29.73 inches Hg (1007.0 mb)
Winds: from the W (260 degrees) at 16 MPH (14 knots; 7.2 m/s)
Visibility: 6 miles ( 9 km)
Ceiling: at least 12,000 feet AGL
Clouds: sky clear below 12,000 feet AGL
Weather: no significant weather observed at this time

METAR text: ORER 171000Z 28008KT 9000 NSC 40/04 Q1008 NOSIG
Conditions at: ORER (ERBIL INTL , IQ) observed 1000 UTC 17 June 2019
Temperature: 40.0°C (104°F)
Dewpoint: 4.0°C (39°F) [RH = 11%]
Pressure (altimeter): 29.76 inches Hg (1008.0 mb)
Winds: from the W (280 degrees) at 9 MPH (8 knots; 4.1 m/s)
Visibility: 6 miles ( 9 km)
Ceiling: at least 12,000 feet AGL
Clouds: sky clear below 12,000 feet AGL
Weather: no significant weather observed at this time

METAR text: ORER 170900Z 27012KT 8000 NSC 40/07 Q1008 NOSIG
Conditions at: ORER (ERBIL INTL , IQ) observed 0900 UTC 17 June 2019
Temperature: 40.0°C (104°F)
Dewpoint: 7.0°C (45°F) [RH = 14%]
Pressure (altimeter): 29.76 inches Hg (1008.0 mb)
Winds: from the W (270 degrees) at 14 MPH (12 knots; 6.2 m/s)
Visibility: 5 miles ( 8 km)
Ceiling: at least 12,000 feet AGL
Clouds: sky clear below 12,000 feet AGL
Weather: no significant weather observed at this time

METAR text: ORER 170800Z 26012KT 7000 NSC 39/08 Q1008 NOSIG
Conditions at: ORER (ERBIL INTL , IQ) observed 0800 UTC 17 June 2019
Temperature: 39.0°C (102°F)
Dewpoint: 8.0°C (46°F) [RH = 15%]
Pressure (altimeter): 29.76 inches Hg (1008.0 mb)
Winds: from the W (260 degrees) at 14 MPH (12 knots; 6.2 m/s)
Visibility: 4 miles ( 7 km)
Ceiling: at least 12,000 feet AGL
Clouds: sky clear below 12,000 feet AGL
Weather: no significant weather observed at this time

METAR text: ORER 170700Z 24006KT 7000 NSC 35/05 Q1008 NOSIG
Conditions at: ORER (ERBIL INTL , IQ) observed 0700 UTC 17 June 2019
Temperature: 35.0°C (95°F)
Dewpoint: 5.0°C (41°F) [RH = 16%]
Pressure (altimeter): 29.76 inches Hg (1008.0 mb)
Winds: from the WSW (240 degrees) at 7 MPH (6 knots; 3.1 m/s)
Visibility: 4 miles ( 7 km)
Ceiling: at least 12,000 feet AGL
Clouds: sky clear below 12,000 feet AGL
Weather: no significant weather observed at this time

METAR text: ORER 170600Z 19006KT 7000 NSC 34/03 Q1007 NOSIG
Conditions at: ORER (ERBIL INTL , IQ) observed 0600 UTC 17 June 2019
Temperature: 34.0°C (93°F)
Dewpoint: 3.0°C (37°F) [RH = 14%]
Pressure (altimeter): 29.73 inches Hg (1007.0 mb)
Winds: from the S (190 degrees) at 7 MPH (6 knots; 3.1 m/s)
Visibility: 4 miles ( 7 km)
Ceiling: at least 12,000 feet AGL
Clouds: sky clear below 12,000 feet AGL
Weather: no significant weather observed at this time

METAR text: ORER 170500Z 16008KT 8000 NSC 33/03 Q1007 NOSIG
Conditions at: ORER (ERBIL INTL , IQ) observed 0500 UTC 17 June 2019
Temperature: 33.0°C (91°F)
Dewpoint: 3.0°C (37°F) [RH = 15%]
Pressure (altimeter): 29.73 inches Hg (1007.0 mb)
Winds: from the SSE (160 degrees) at 9 MPH (8 knots; 4.1 m/s)
Visibility: 5 miles ( 8 km)
Ceiling: at least 12,000 feet AGL
Clouds: sky clear below 12,000 feet AGL
Weather: no significant weather observed at this time

METAR text: ORER 170400Z 20006KT 8000 FEW050 29/04 Q1006 NOSIG
Conditions at: ORER (ERBIL INTL , IQ) observed 0400 UTC 17 June 2019
Temperature: 29.0°C (84°F)
Dewpoint: 4.0°C (39°F) [RH = 20%]
Pressure (altimeter): 29.70 inches Hg (1006.0 mb)
Winds: from the SSW (200 degrees) at 7 MPH (6 knots; 3.1 m/s)
Visibility: 5 miles ( 8 km)
Ceiling: at least 12,000 feet AGL
Clouds: few clouds at 5000 feet AGL
Weather: no significant weather observed at this time

METAR text: ORER 170300Z 15004KT 9000 FEW050 25/05 Q1055 NOSIG
Conditions at: ORER (ERBIL INTL , IQ) observed 0300 UTC 17 June 2019
Temperature: 25.0°C (77°F)
Dewpoint: 5.0°C (41°F) [RH = 28%]
Pressure (altimeter): 31.15 inches Hg (1055.0 mb)
Winds: from the SSE (150 degrees) at 5 MPH (4 knots; 2.1 m/s)
Visibility: 6 miles ( 9 km)
Ceiling: at least 12,000 feet AGL
Clouds: few clouds at 5000 feet AGL
Weather: no significant weather observed at this time

METAR text: ORER 170200Z 09003KT 060V120 9000 NSC 25/04 Q1005 NOSIG
Conditions at: ORER (ERBIL INTL , IQ) observed 0200 UTC 17 June 2019
Temperature: 25.0°C (77°F)
Dewpoint: 4.0°C (39°F) [RH = 26%]
Pressure (altimeter): 29.68 inches Hg (1005.0 mb)
Winds: from the E (90 degrees) at 3 MPH (3 knots; 1.5 m/s)
Visibility: 6 miles ( 9 km)
Ceiling: at least 12,000 feet AGL
Clouds: sky clear below 12,000 feet AGL
Weather: no significant weather observed at this time

METAR text: ORER 170000Z 20006KT CAVOK 28/03 Q1004 NOSIG
Conditions at: ORER (ERBIL INTL , IQ) observed 0000 UTC 17 June 2019
Temperature: 28.0°C (82°F)
Dewpoint: 3.0°C (37°F) [RH = 20%]
Pressure (altimeter): 29.65 inches Hg (1004.0 mb)
Winds: from the SSW (200 degrees) at 7 MPH (6 knots; 3.1 m/s)
Visibility: 6 or more miles (10+ km)
Ceiling: ceiling and visibility are OK
Clouds: unknown
Weather: no significant weather observed at this time

Forecast for: ORER (ERBIL INTL , IQ)
Text: TAF ORER 181000Z 1812/1912 22010KT 8000 NSC
Forecast period: 1200 UTC 18 June 2019 to 1200 UTC 19 June 2019
Forecast type: FROM: standard forecast or significant change
Winds: from the SW (220 degrees) at 12 MPH (10 knots; 5.1 m/s)
Visibility: 5 miles (8 km)
Ceiling: unknown
Clouds: missing
Weather: no significant weather forecast for this period